Montgomery, Kentucky
Current Conditions -  °F | °C
As of 9:58 PM on Tuesday 25 Nov 2014 (Local Time) from KHOP Reporting Station
Clear Clear  
Wind Chill: 35°   Ceiling: Unl
Heat Index: 35°   Visibility: 10mi
Dew Point: 29°   Wind: 3mph
Humidity: 78%   Direction: 20°NNE
Pressure: 30.18"   Gusts: NA
Location:  36.8031°N, 87.8159°W
Report Text: KHOP 260358Z AUTO 02003KT 10SM CLR 02/M02 A3018 RMK AO2 SLP225 T00151019
Loading
Personal Weather Stations






























Interactive Weather Map New forecast layout! Learn more

10-Day Weather Forecast

Advertisements
Track Severe Weather on mobile